Time;durP1;ratioP1;P1;durP2;ratioP2;P2;SDS_P1;SDS_P2;PMS_P1;PMS_P2;Temp;Humidity;BMP_temperature;BMP_pressure;BME280_temperature;BME280_humidity;BME280_pressure;Samples;Min_cycle;Max_cycle;Signal;HPM_P1;HPM_P2
2022/11/12 00:00:22;;;;;;;6.75;3.85;;;11.80;99.90;;;;;;10442145;28;20098;-61
2022/11/12 00:05:24;;;;;;;7.28;3.78;;;11.80;99.90;;;;;;10442130;28;20033;-62
2022/11/12 00:10:25;;;;;;;7.53;4.22;;;11.70;99.90;;;;;;10447582;28;20017;-62
2022/11/12 00:15:26;;;;;;;7.63;4.30;;;11.70;99.90;;;;;;10454403;28;20036;-62
2022/11/12 00:20:27;;;;;;;7.72;4.25;;;11.70;99.90;;;;;;10447260;28;20089;-62
2022/11/12 00:25:28;;;;;;;6.18;3.67;;;11.70;99.90;;;;;;10431433;28;20509;-61
2022/11/12 00:30:29;;;;;;;7.32;4.20;;;11.70;99.90;;;;;;10445500;28;20025;-62
2022/11/12 00:35:31;;;;;;;8.07;3.97;;;11.70;99.90;;;;;;10441709;28;20033;-62
2022/11/12 00:40:31;;;;;;;7.38;4.10;;;11.70;99.90;;;;;;10449609;28;20536;-62
2022/11/12 00:45:32;;;;;;;6.65;4.05;;;11.60;99.90;;;;;;10447892;28;20097;-62
2022/11/12 00:50:33;;;;;;;7.13;4.25;;;11.70;99.90;;;;;;10432749;28;20440;-63
2022/11/12 00:55:33;;;;;;;5.60;4.20;;;11.60;99.90;;;;;;10435962;28;20040;-62
2022/11/12 01:00:34;;;;;;;9.45;4.30;;;11.60;99.90;;;;;;10449074;28;20439;-62
2022/11/12 01:05:35;;;;;;;5.97;4.00;;;11.60;99.90;;;;;;10444478;28;20033;-61
2022/11/12 01:10:35;;;;;;;7.25;4.50;;;11.60;99.90;;;;;;10449222;28;20108;-62
2022/11/12 01:15:41;;;;;;;6.93;3.75;;;11.60;99.90;;;;;;10443330;28;20037;-63
2022/11/12 01:20:41;;;;;;;5.53;4.10;;;11.50;99.90;;;;;;10444124;28;20545;-62
2022/11/12 01:25:42;;;;;;;5.47;4.00;;;11.50;99.90;;;;;;10446657;28;20025;-62
2022/11/12 01:30:43;;;;;;;6.40;4.35;;;11.50;99.90;;;;;;10448142;28;20112;-62
2022/11/12 01:35:43;;;;;;;6.70;3.80;;;11.50;99.90;;;;;;10433272;28;20029;-62
2022/11/12 01:40:44;;;;;;;13.55;4.50;;;11.50;99.90;;;;;;10456363;28;20021;-62
2022/11/12 01:45:48;;;;;;;7.15;3.90;;;11.50;99.90;;;;;;10483406;28;20097;-62
2022/11/12 01:50:50;;;;;;;6.55;4.20;;;11.40;99.90;;;;;;10450166;28;20028;-62
2022/11/12 01:55:52;;;;;;;6.10;3.97;;;11.40;99.90;;;;;;10440703;28;20048;-62
2022/11/12 02:00:53;;;;;;;8.18;4.50;;;11.40;99.90;;;;;;10464796;28;20133;-62
2022/11/12 02:06:08;;;;;;;6.68;3.95;;;11.40;99.90;;;;;;10457200;28;20171;-65
2022/11/12 02:11:17;;;;;;;7.38;4.40;;;11.40;99.90;;;;;;10444179;28;20515;-62
2022/11/12 02:16:17;;;;;;;;;;;11.40;99.90;;;;;;10440781;28;20119;-62
2022/11/12 02:21:19;;;;;;;6.95;4.07;;;11.30;99.60;;;;;;10448587;28;19921;-62
2022/11/12 02:26:20;;;;;;;6.97;4.38;;;11.30;99.90;;;;;;10436297;28;20466;-61
2022/11/12 02:31:21;;;;;;;7.95;4.05;;;11.40;99.90;;;;;;10445490;28;20025;-63
2022/11/12 02:36:22;;;;;;;9.23;5.47;;;11.30;99.80;;;;;;10435584;28;20086;-63
2022/11/12 02:41:23;;;;;;;8.13;4.22;;;11.30;99.90;;;;;;10451835;28;20071;-63
2022/11/12 02:46:24;;;;;;;5.78;3.88;;;11.30;99.80;;;;;;10449440;28;20090;-62
2022/11/12 02:51:24;;;;;;;6.45;3.85;;;11.30;99.80;;;;;;10455159;28;20514;-62
2022/11/12 02:56:25;;;;;;;6.97;4.35;;;11.30;99.80;;;;;;10419676;28;20041;-62
2022/11/12 03:01:26;;;;;;;9.18;4.60;;;11.30;99.80;;;;;;10443686;28;20045;-61
2022/11/12 03:06:27;;;;;;;9.20;4.50;;;11.20;99.80;;;;;;10452777;28;20017;-61
2022/11/12 03:11:27;;;;;;;9.75;4.55;;;11.20;99.80;;;;;;10457113;28;20155;-62
2022/11/12 03:16:28;;;;;;;8.18;4.40;;;11.20;99.80;;;;;;10444436;28;20043;-62
2022/11/12 03:21:29;;;;;;;5.55;4.20;;;11.20;99.80;;;;;;10443098;28;20036;-62
2022/11/12 03:26:29;;;;;;;6.85;4.45;;;11.20;99.80;;;;;;10430774;28;20025;-61
2022/11/12 03:31:30;;;;;;;7.45;4.07;;;11.20;99.70;;;;;;10430439;28;20632;-62
2022/11/12 03:36:31;;;;;;;7.70;4.50;;;11.20;99.70;;;;;;10442210;28;20485;-62
2022/11/12 03:41:31;;;;;;;6.70;4.32;;;11.20;99.70;;;;;;10444049;28;20021;-63
2022/11/12 03:46:32;;;;;;;7.03;4.47;;;11.20;99.70;;;;;;10435277;28;20048;-62
2022/11/12 03:51:33;;;;;;;7.32;4.50;;;11.10;99.70;;;;;;10460700;28;20064;-61
2022/11/12 03:56:33;;;;;;;6.32;4.28;;;11.10;99.70;;;;;;10452784;28;20040;-62
2022/11/12 04:01:34;;;;;;;6.90;4.60;;;11.10;99.70;;;;;;10431000;28;20572;-62
2022/11/12 04:11:54;;;;;;;8.13;5.22;;;11.10;99.70;;;;;;10451642;28;20025;-63
2022/11/12 04:22:14;;;;;;;7.75;4.80;;;11.10;99.70;;;;;;10434065;28;20550;-62
2022/11/12 04:27:32;;;;;;;6.70;4.22;;;11.10;99.60;;;;;;10450639;28;20025;-63
2022/11/12 04:32:35;;;;;;;8.50;4.30;;;11.10;99.60;;;;;;10450206;28;20045;-62
2022/11/12 04:37:45;;;;;;;6.97;4.38;;;11.00;99.60;;;;;;10464781;28;20037;-62
2022/11/12 04:48:06;;;;;;;8.35;4.70;;;11.00;99.60;;;;;;10450810;28;20033;-62
2022/11/12 04:53:07;;;;;;;7.25;4.35;;;11.00;99.60;;;;;;10473998;28;20079;-62
2022/11/12 04:58:08;;;;;;;7.90;4.78;;;11.00;99.60;;;;;;10435700;28;20037;-62
2022/11/12 05:03:09;;;;;;;6.80;4.35;;;11.00;99.50;;;;;;10437259;28;20036;-62
2022/11/12 05:08:09;;;;;;;9.57;5.00;;;10.90;99.50;;;;;;10460429;28;20340;-62
2022/11/12 05:13:10;;;;;;;8.00;4.60;;;10.90;99.50;;;;;;10462524;28;20037;-62
2022/11/12 05:18:11;;;;;;;6.75;4.68;;;11.10;99.50;;;;;;10448447;28;20029;-61
2022/11/12 05:23:11;;;;;;;8.55;4.43;;;10.90;99.40;;;;;;10433911;28;20032;-65
2022/11/12 05:28:12;;;;;;;6.55;4.50;;;10.90;99.40;;;;;;10468683;28;20032;-62
2022/11/12 05:33:13;;;;;;;5.80;4.15;;;10.90;99.40;;;;;;10460440;28;20057;-61
2022/11/12 05:38:14;;;;;;;7.97;4.25;;;10.80;99.40;;;;;;10438940;28;20178;-61
2022/11/12 05:43:14;;;;;;;6.35;4.22;;;10.80;99.40;;;;;;10422828;28;20350;-63
2022/11/12 05:48:15;;;;;;;6.93;4.07;;;10.80;99.40;;;;;;10463617;28;20023;-62
2022/11/12 05:53:16;;;;;;;6.55;4.10;;;10.80;99.30;;;;;;10474639;28;20603;-62
2022/11/12 05:58:17;;;;;;;6.68;3.83;;;10.80;99.30;;;;;;10447200;28;20041;-61
2022/11/12 06:03:17;;;;;;;6.30;3.97;;;10.80;99.30;;;;;;10447121;28;20032;-61
2022/11/12 06:08:18;;;;;;;5.63;3.58;;;10.70;99.50;;;;;;10457837;28;20029;-62
2022/11/12 06:13:21;;;;;;;5.55;3.47;;;10.80;99.20;;;;;;10458115;28;20210;-62
2022/11/12 06:18:23;;;;;;;4.93;3.50;;;10.70;99.20;;;;;;10446208;28;20451;-62
2022/11/12 06:23:24;;;;;;;5.90;3.58;;;10.70;99.20;;;;;;10443281;28;20064;-62
2022/11/12 06:28:24;;;;;;;5.82;4.45;;;10.70;99.20;;;;;;10446079;28;20166;-61
2022/11/12 06:33:25;;;;;;;4.78;3.65;;;10.70;99.10;;;;;;10431074;28;20246;-61
2022/11/12 06:38:26;;;;;;;4.85;3.53;;;10.70;99.10;;;;;;10466610;28;20055;-62
2022/11/12 06:43:29;;;;;;;4.75;3.35;;;10.70;99.20;;;;;;10446773;28;20044;-62
2022/11/12 06:48:30;;;;;;;5.63;3.42;;;10.60;99.10;;;;;;10454291;28;20437;-61
2022/11/12 06:53:30;;;;;;;5.15;3.80;;;10.70;99.10;;;;;;10455278;28;20083;-63
2022/11/12 06:58:31;;;;;;;3.92;3.30;;;10.60;99.00;;;;;;10428247;28;20037;-62
2022/11/12 07:03:32;;;;;;;5.50;3.83;;;10.60;99.00;;;;;;10425327;28;20036;-61
2022/11/12 07:08:33;;;;;;;4.75;3.28;;;10.60;99.00;;;;;;10438740;28;20362;-61
2022/11/12 07:13:35;;;;;;;5.35;3.53;;;10.60;99.00;;;;;;10404843;28;20261;-62
2022/11/12 07:18:36;;;;;;;4.55;3.28;;;10.50;98.90;;;;;;10340403;28;20032;-61
2022/11/12 07:23:37;;;;;;;4.90;3.22;;;10.50;98.90;;;;;;10345060;28;20029;-61
2022/11/12 07:28:38;;;;;;;4.80;3.53;;;10.50;98.90;;;;;;10348342;28;20341;-62
2022/11/12 07:33:39;;;;;;;5.78;3.40;;;10.60;98.90;;;;;;10353488;28;20859;-62
2022/11/12 07:38:41;;;;;;;4.18;3.30;;;10.50;98.80;;;;;;10348512;28;20592;-61
2022/11/12 07:43:45;;;;;;;5.45;3.90;;;10.50;98.80;;;;;;10340228;28;20512;-61
2022/11/12 07:48:46;;;;;;;5.10;3.47;;;10.50;98.80;;;;;;10354674;28;20461;-62
2022/11/12 07:53:50;;;;;;;4.97;3.47;;;10.50;98.80;;;;;;10379938;28;20348;-62
2022/11/12 07:58:51;;;;;;;4.40;3.35;;;10.50;98.70;;;;;;10349223;28;20050;-61
2022/11/12 08:03:51;;;;;;;4.90;3.67;;;10.50;98.70;;;;;;10366642;28;20025;-61
2022/11/12 08:08:53;;;;;;;6.60;4.00;;;10.50;98.60;;;;;;10365664;28;20304;-60
2022/11/12 08:13:53;;;;;;;4.32;3.20;;;10.50;98.70;;;;;;10363324;28;20479;-62
2022/11/12 08:18:54;;;;;;;4.93;3.30;;;10.60;98.70;;;;;;10358737;28;20031;-60
2022/11/12 08:23:55;;;;;;;5.57;3.63;;;10.60;98.60;;;;;;10369704;28;20036;-61
2022/11/12 08:28:56;;;;;;;4.55;3.40;;;10.60;98.50;;;;;;10360595;28;20634;-59
2022/11/12 08:33:56;;;;;;;4.10;3.25;;;10.60;98.50;;;;;;10361634;28;20451;-61
2022/11/12 08:38:57;;;;;;;4.35;3.15;;;10.70;98.50;;;;;;10371806;28;20434;-60
2022/11/12 08:43:58;;;;;;;4.95;3.10;;;10.70;98.70;;;;;;10357126;28;20584;-60
2022/11/12 08:48:59;;;;;;;4.47;3.33;;;10.70;98.40;;;;;;10366987;28;20025;-60
2022/11/12 08:53:59;;;;;;;4.47;3.33;;;10.80;98.40;;;;;;10365141;28;20462;-60
2022/11/12 08:59:00;;;;;;;4.07;3.28;;;10.90;98.40;;;;;;10369058;28;20889;-62
2022/11/12 09:04:01;;;;;;;4.32;2.95;;;10.90;98.30;;;;;;10368925;28;20909;-59
2022/11/12 09:09:02;;;;;;;5.13;3.55;;;11.00;98.40;;;;;;10366091;28;20064;-60
2022/11/12 09:14:02;;;;;;;5.43;3.38;;;11.00;98.40;;;;;;10363084;28;20081;-60
2022/11/12 09:19:03;;;;;;;5.22;3.08;;;11.00;98.40;;;;;;10355864;28;20048;-59
2022/11/12 09:24:04;;;;;;;6.32;3.67;;;11.10;98.40;;;;;;10352823;28;20217;-61
2022/11/12 09:29:05;;;;;;;5.10;3.28;;;11.10;98.40;;;;;;10349273;28;20563;-60
2022/11/12 09:34:06;;;;;;;4.90;3.33;;;11.10;98.40;;;;;;10359259;28;20037;-60
2022/11/12 09:39:07;;;;;;;8.88;4.00;;;11.10;98.40;;;;;;10361180;28;20123;-60
2022/11/12 09:44:23;;;;;;;6.28;4.00;;;11.10;98.40;;;;;;10346732;28;20816;-60
2022/11/12 09:49:45;;;;;;;7.22;4.22;;;11.10;98.40;;;;;;10360030;28;20152;-62
2022/11/12 09:54:54;;;;;;;5.80;4.03;;;11.10;98.30;;;;;;10356128;28;20497;-60
2022/11/12 09:59:55;;;;;;;;;;;11.10;98.40;;;;;;10358098;28;20269;-60
2022/11/12 10:05:19;;;;;;;7.85;4.20;;;11.10;98.60;;;;;;10354953;28;19931;-60
2022/11/12 10:10:36;;;;;;;5.18;3.63;;;11.20;98.40;;;;;;10353138;28;20047;-61
2022/11/12 10:21:39;;;;;;;5.05;3.88;;;11.20;98.30;;;;;;10352384;28;20048;-60
2022/11/12 10:26:39;;;;;;;7.43;4.30;;;11.30;98.40;;;;;;10355099;28;20131;-60
2022/11/12 10:31:40;;;;;;;5.30;3.70;;;11.30;98.40;;;;;;10347238;28;20029;-59
2022/11/12 10:37:00;;;;;;;5.90;3.75;;;11.30;98.40;;;;;;10349640;28;20041;-60
2022/11/12 10:42:07;;;;;;;6.95;4.18;;;11.30;98.40;;;;;;10359025;28;20017;-60
2022/11/12 10:47:20;;;;;;;5.43;3.58;;;11.40;98.30;;;;;;10344478;28;20033;-60
2022/11/12 10:52:23;;;;;;;8.43;3.72;;;11.40;98.30;;;;;;10355167;28;20029;-61
2022/11/12 10:57:25;;;;;;;6.22;3.97;;;11.40;98.30;;;;;;10346940;28;20540;-60
2022/11/12 11:02:26;;;;;;;5.15;3.85;;;11.50;98.40;;;;;;10343492;28;20505;-60
2022/11/12 11:07:27;;;;;;;7.30;4.63;;;11.50;98.40;;;;;;10350674;28;20270;-60
2022/11/12 11:12:30;;;;;;;10.73;6.82;;;11.50;98.50;;;;;;10334914;28;20033;-60
2022/11/12 11:17:31;;;;;;;12.57;6.35;;;11.50;98.70;;;;;;10336602;28;20028;-60
2022/11/12 11:22:43;;;;;;;18.83;7.55;;;11.50;98.80;;;;;;10342196;28;20028;-59
2022/11/12 11:28:08;;;;;;;12.35;6.53;;;11.50;99.10;;;;;;10358961;28;20114;-59
2022/11/12 11:33:40;;;;;;;10.35;6.10;;;11.50;99.10;;;;;;10337305;28;20793;-59
2022/11/12 11:38:58;;;;;;;10.98;6.05;;;11.50;99.10;;;;;;10340860;28;20180;-59
2022/11/12 11:44:38;;;;;;;10.23;6.30;;;11.60;99.00;;;;;;10335283;28;20480;-61
2022/11/12 11:49:59;;;;;;;9.55;5.43;;;11.60;99.00;;;;;;10261381;28;20045;-61
2022/11/12 11:55:27;;;;;;;9.25;5.32;;;11.70;98.90;;;;;;10345334;28;20050;-60
2022/11/12 12:00:53;;;;;;;11.27;5.70;;;11.70;98.90;;;;;;10343282;28;20472;-59
2022/11/12 12:06:15;;;;;;;9.35;5.18;;;11.70;98.80;;;;;;10359139;28;20575;-59
2022/11/12 12:11:32;;;;;;;12.20;5.07;;;11.70;98.80;;;;;;10336782;28;20035;-60
2022/11/12 12:16:54;;;;;;;8.00;5.25;;;11.80;98.80;;;;;;10337174;28;20045;-59
2022/11/12 12:21:57;;;;;;;6.15;4.65;;;11.80;98.80;;;;;;10350164;28;20029;-61
2022/11/12 12:27:19;;;;;;;11.25;5.68;;;11.80;98.80;;;;;;10354483;28;20363;-63
2022/11/12 12:32:22;;;;;;;7.88;4.93;;;11.80;99.10;;;;;;10341673;28;20049;-59
2022/11/12 12:37:30;;;;;;;11.00;4.68;;;11.90;98.90;;;;;;10341072;28;20017;-60
2022/11/12 12:42:45;;;;;;;7.85;4.90;;;11.90;98.80;;;;;;10351341;28;20460;-60
2022/11/12 12:47:47;;;;;;;6.47;4.50;;;11.90;98.80;;;;;;10342160;28;20026;-60
2022/11/12 12:53:14;;;;;;;7.63;4.63;;;11.90;98.90;;;;;;10368676;28;20626;-60
2022/11/12 12:58:41;;;;;;;10.75;5.68;;;12.00;99.10;;;;;;10336053;28;20049;-60
2022/11/12 13:03:45;;;;;;;10.23;5.20;;;12.00;99.10;;;;;;10338789;28;20151;-61
2022/11/12 13:08:47;;;;;;;10.02;5.13;;;12.00;99.20;;;;;;10355800;28;20603;-59
2022/11/12 13:13:48;;;;;;;9.85;5.47;;;12.10;99.10;;;;;;10356759;28;20032;-59
2022/11/12 13:18:51;;;;;;;9.32;5.75;;;12.10;99.10;;;;;;10353574;28;20037;-60
2022/11/12 13:24:13;;;;;;;8.77;5.03;;;12.10;99.10;;;;;;10349974;28;20037;-61
2022/11/12 13:29:22;;;;;;;7.32;5.00;;;12.10;99.20;;;;;;10345757;28;20291;-59
2022/11/12 13:34:31;;;;;;;10.52;5.47;;;12.10;99.20;;;;;;10350193;28;20057;-59
2022/11/12 13:39:35;;;;;;;11.27;5.57;;;12.20;99.20;;;;;;10353414;28;20921;-60
2022/11/12 13:44:35;;;;;;;9.75;5.57;;;12.20;99.10;;;;;;10335689;28;20524;-60
2022/11/12 13:49:37;;;;;;;12.23;5.45;;;12.20;99.10;;;;;;10330838;28;20033;-59
2022/11/12 13:54:38;;;;;;;10.27;4.93;;;12.20;99.10;;;;;;10351275;28;20089;-60
2022/11/12 13:59:39;;;;;;;12.27;6.25;;;12.30;99.10;;;;;;10356482;28;20127;-64
2022/11/12 14:04:39;;;;;;;11.02;6.57;;;12.40;99.30;;;;;;10359992;28;20206;-60
2022/11/12 14:09:40;;;;;;;12.65;6.00;;;12.50;99.40;;;;;;10356906;28;20159;-60
2022/11/12 14:14:49;;;;;;;10.95;5.47;;;12.60;99.40;;;;;;10379381;22;20045;-60
2022/11/12 14:19:58;;;;;;;;;;;12.70;99.40;;;;;;10356668;28;20491;-59
2022/11/12 14:25:01;;;;;;;7.80;5.50;;;12.70;99.50;;;;;;10332676;28;20164;-60
2022/11/12 14:30:22;;;;;;;8.75;4.72;;;12.70;99.20;;;;;;10360383;28;20102;-61
2022/11/12 14:35:34;;;;;;;11.30;5.25;;;12.70;99.30;;;;;;10363202;28;20465;-60
2022/11/12 14:40:56;;;;;;;9.98;5.35;;;12.60;99.40;;;;;;10363840;28;20025;-61
2022/11/12 14:45:59;;;;;;;10.07;5.25;;;12.60;99.40;;;;;;10371252;28;20041;-60
2022/11/12 14:51:05;;;;;;;7.25;4.70;;;12.50;99.50;;;;;;10347621;28;20031;-60
2022/11/12 14:56:08;;;;;;;9.90;5.40;;;12.90;99.60;;;;;;10369290;28;20044;-60
2022/11/12 15:01:20;;;;;;;8.07;4.30;;;12.50;99.60;;;;;;10346638;28;20267;-60
2022/11/12 15:06:29;;;;;;;8.30;4.35;;;12.40;99.60;;;;;;10359746;28;20025;-60
2022/11/12 15:11:49;;;;;;;10.18;4.30;;;12.40;99.70;;;;;;10349056;28;20359;-60
2022/11/12 15:16:50;;;;;;;7.80;4.32;;;12.40;99.70;;;;;;10343040;28;20538;-60
2022/11/12 15:21:57;;;;;;;6.50;3.92;;;12.30;99.80;;;;;;10355549;28;20460;-60
2022/11/12 15:27:20;;;;;;;6.38;4.03;;;12.30;99.80;;;;;;10367418;28;20053;-60
2022/11/12 15:32:21;;;;;;;6.90;4.22;;;12.30;99.90;;;;;;10352847;28;20078;-60
2022/11/12 15:37:25;;;;;;;7.05;4.15;;;12.30;99.90;;;;;;10364182;28;20025;-60
2022/11/12 15:42:41;;;;;;;14.55;6.78;;;12.30;99.90;;;;;;10368013;28;20568;-62
2022/11/12 15:47:42;;;;;;;11.55;6.32;;;12.20;99.90;;;;;;10358850;28;20496;-60
2022/11/12 15:52:43;;;;;;;11.93;6.15;;;12.10;99.90;;;;;;10346641;28;20036;-60
2022/11/12 15:57:50;;;;;;;11.05;6.22;;;12.10;99.90;;;;;;10362447;28;20579;-61
2022/11/12 16:03:09;;;;;;;8.38;5.45;;;12.20;99.90;;;;;;10347220;28;20032;-60
2022/11/12 16:08:11;;;;;;;13.85;6.32;;;12.10;99.90;;;;;;10361413;28;20220;-60
2022/11/12 16:13:22;;;;;;;9.10;5.60;;;12.10;99.90;;;;;;10351963;28;20102;-60
2022/11/12 16:18:23;;;;;;;11.88;6.07;;;12.10;99.90;;;;;;10336307;28;20298;-60
2022/11/12 16:23:24;;;;;;;11.20;6.55;;;12.10;99.90;;;;;;10436925;28;20411;-60
2022/11/12 16:28:24;;;;;;;11.63;6.32;;;12.10;99.90;;;;;;10441516;28;20079;-60
2022/11/12 16:33:25;;;;;;;12.32;6.78;;;12.10;99.90;;;;;;10449989;28;20045;-60
2022/11/12 16:38:26;;;;;;;12.50;7.05;;;12.10;99.90;;;;;;10463044;28;20504;-60
2022/11/12 16:43:27;;;;;;;11.52;6.60;;;12.10;99.90;;;;;;10463290;28;20180;-61
2022/11/12 16:48:28;;;;;;;12.07;6.97;;;12.10;99.90;;;;;;10461126;28;20263;-60
2022/11/12 16:53:29;;;;;;;12.02;7.05;;;12.10;99.90;;;;;;10451754;28;20676;-62
2022/11/12 16:58:30;;;;;;;12.32;6.82;;;12.10;99.90;;;;;;10454194;28;20116;-61
2022/11/12 17:03:31;;;;;;;11.90;6.75;;;12.10;99.90;;;;;;10453046;28;20021;-60
2022/11/12 17:08:32;;;;;;;12.20;6.40;;;12.10;99.90;;;;;;10460035;28;20087;-62
2022/11/12 17:13:32;;;;;;;12.00;6.20;;;12.10;99.90;;;;;;10452041;28;20131;-60
2022/11/12 17:18:33;;;;;;;13.30;6.97;;;12.10;99.90;;;;;;10445639;28;20044;-60
2022/11/12 17:23:34;;;;;;;11.90;6.32;;;12.00;99.90;;;;;;10446138;28;20488;-67
2022/11/12 17:28:36;;;;;;;12.63;6.50;;;12.00;99.90;;;;;;10443921;28;20171;-60
2022/11/12 17:33:39;;;;;;;15.20;6.68;;;12.10;99.90;;;;;;10431168;28;20179;-60
2022/11/12 17:38:40;;;;;;;12.13;6.40;;;12.00;99.90;;;;;;10450278;28;20033;-61
2022/11/12 17:43:41;;;;;;;9.45;5.95;;;12.00;99.90;;;;;;10446694;28;20439;-60
2022/11/12 17:48:43;;;;;;;12.90;6.72;;;12.00;99.90;;;;;;10455438;28;20074;-63
2022/11/12 17:53:44;;;;;;;13.05;7.15;;;12.10;99.90;;;;;;10454506;28;20253;-61
2022/11/12 17:58:46;;;;;;;12.45;6.20;;;12.10;99.90;;;;;;10450182;28;20040;-64
2022/11/12 18:03:49;;;;;;;11.07;6.75;;;12.20;99.90;;;;;;10451909;28;20032;-61
2022/11/12 18:09:15;;;;;;;12.80;6.47;;;12.20;99.90;;;;;;10447830;28;20032;-61
2022/11/12 18:14:16;;;;;;;13.18;6.55;;;12.20;99.90;;;;;;10437200;28;20451;-61
2022/11/12 18:19:18;;;;;;;12.52;6.38;;;12.10;99.90;;;;;;10446581;28;20025;-61
2022/11/12 18:24:19;;;;;;;13.73;6.07;;;12.10;99.90;;;;;;10442577;28;20442;-61
2022/11/12 18:29:19;;;;;;;12.05;6.45;;;12.00;99.90;;;;;;10447812;28;20112;-63
2022/11/12 18:34:20;;;;;;;12.32;6.50;;;12.00;99.90;;;;;;10453882;28;20043;-60
2022/11/12 18:39:21;;;;;;;11.43;6.50;;;12.00;99.90;;;;;;10462909;28;20127;-62
2022/11/12 18:44:22;;;;;;;13.23;6.95;;;12.00;99.90;;;;;;10433017;28;20436;-60
2022/11/12 18:49:23;;;;;;;11.23;6.80;;;12.00;99.90;;;;;;10422091;28;20104;-61
2022/11/12 18:54:24;;;;;;;13.45;6.72;;;11.90;99.90;;;;;;10456806;28;20515;-61
2022/11/12 18:59:29;;;;;;;13.75;6.65;;;11.90;99.90;;;;;;10441710;28;20025;-60
2022/11/12 19:04:30;;;;;;;15.82;6.22;;;11.90;99.90;;;;;;10456114;28;20028;-61
2022/11/12 19:09:31;;;;;;;13.02;6.95;;;11.90;99.90;;;;;;10447086;28;20441;-60
2022/11/12 19:14:32;;;;;;;11.85;6.13;;;11.90;99.90;;;;;;10446337;28;20057;-61
2022/11/12 19:19:33;;;;;;;11.45;6.40;;;11.90;99.90;;;;;;10451626;28;20017;-60
2022/11/12 19:24:33;;;;;;;9.95;6.30;;;11.80;99.90;;;;;;10450515;28;20090;-61
2022/11/12 19:29:34;;;;;;;11.00;6.53;;;11.80;99.90;;;;;;10452738;28;20066;-61
2022/11/12 19:34:35;;;;;;;11.10;6.05;;;11.80;99.90;;;;;;10458444;28;20052;-60
2022/11/12 19:39:36;;;;;;;10.52;6.15;;;11.80;99.90;;;;;;10453730;28;20025;-61
2022/11/12 19:44:36;;;;;;;9.38;6.60;;;11.80;99.90;;;;;;10451063;28;20090;-60
2022/11/12 19:49:37;;;;;;;10.68;6.10;;;11.70;99.90;;;;;;10456445;28;20532;-61
2022/11/12 19:54:38;;;;;;;13.30;6.80;;;11.70;99.90;;;;;;10460839;28;20048;-61
2022/11/12 19:59:41;;;;;;;10.05;6.53;;;11.70;99.90;;;;;;10449369;28;20025;-61
2022/11/12 20:04:42;;;;;;;10.80;6.80;;;11.70;99.90;;;;;;10455749;28;20166;-61
2022/11/12 20:09:43;;;;;;;9.65;6.15;;;11.70;99.90;;;;;;10452133;28;20549;-61
2022/11/12 20:14:44;;;;;;;9.70;5.88;;;11.70;99.90;;;;;;10453715;28;20546;-60
2022/11/12 20:19:45;;;;;;;9.63;6.00;;;11.70;99.90;;;;;;10445403;28;20025;-60
2022/11/12 20:24:45;;;;;;;10.10;6.28;;;11.70;99.90;;;;;;10438689;28;20036;-61
2022/11/12 20:29:46;;;;;;;8.32;6.13;;;11.70;99.90;;;;;;10448916;28;20017;-61
2022/11/12 20:34:47;;;;;;;9.65;6.03;;;11.60;99.90;;;;;;10449241;28;20033;-60
2022/11/12 20:39:48;;;;;;;9.40;6.35;;;11.60;99.90;;;;;;10451049;28;20021;-60
2022/11/12 20:44:48;;;;;;;8.48;5.78;;;11.60;99.90;;;;;;10446594;28;20384;-60
2022/11/12 20:49:49;;;;;;;11.88;6.18;;;11.60;99.90;;;;;;10452260;28;20056;-60
2022/11/12 20:54:49;;;;;;;13.32;6.68;;;11.60;99.90;;;;;;10447252;28;20064;-61
2022/11/12 20:59:50;;;;;;;9.05;5.85;;;11.60;99.90;;;;;;10438548;28;20107;-63
2022/11/12 21:04:53;;;;;;;11.25;6.60;;;11.80;99.90;;;;;;10454288;28;20025;-60
2022/11/12 21:09:54;;;;;;;10.52;6.30;;;11.60;99.90;;;;;;10478615;28;20284;-61
2022/11/12 21:14:54;;;;;;;10.50;5.80;;;11.60;99.90;;;;;;10481653;28;20071;-60
2022/11/12 21:19:55;;;;;;;14.50;6.70;;;11.60;99.90;;;;;;10466952;28;20040;-60
2022/11/12 21:24:56;;;;;;;9.98;5.80;;;11.60;99.90;;;;;;10458214;28;20017;-61
2022/11/12 21:29:56;;;;;;;9.57;6.10;;;11.50;99.90;;;;;;10474504;28;20032;-60
2022/11/12 21:34:57;;;;;;;9.77;6.07;;;11.50;99.90;;;;;;10475144;28;20044;-60
2022/11/12 21:39:58;;;;;;;10.55;6.60;;;11.50;99.90;;;;;;10479646;28;20306;-61
2022/11/12 21:44:59;;;;;;;9.07;6.38;;;11.50;99.90;;;;;;10465839;28;20040;-60
2022/11/12 21:49:59;;;;;;;9.25;6.22;;;11.50;99.90;;;;;;10445002;28;20017;-61
2022/11/12 21:55:00;;;;;;;9.43;6.38;;;11.60;99.90;;;;;;10446447;28;20055;-61
2022/11/12 22:00:01;;;;;;;10.60;6.35;;;11.50;99.90;;;;;;10459467;28;20448;-61
2022/11/12 22:05:02;;;;;;;10.05;6.50;;;11.50;99.90;;;;;;10473270;28;20029;-60
2022/11/12 22:10:03;;;;;;;9.63;6.72;;;11.50;99.90;;;;;;10465964;28;20022;-60
2022/11/12 22:15:04;;;;;;;9.90;6.38;;;11.40;99.90;;;;;;10475329;28;20045;-60
2022/11/12 22:20:05;;;;;;;10.80;6.97;;;11.40;99.90;;;;;;10467336;28;20025;-61
2022/11/12 22:25:06;;;;;;;10.43;7.15;;;11.40;99.90;;;;;;10447126;28;20367;-60
2022/11/12 22:30:07;;;;;;;9.50;6.43;;;11.40;99.90;;;;;;10463019;28;20024;-60
2022/11/12 22:35:08;;;;;;;10.38;6.47;;;11.40;99.90;;;;;;10464069;28;20016;-60
2022/11/12 22:40:10;;;;;;;11.50;7.28;;;11.40;99.90;;;;;;10469823;28;20564;-60
2022/11/12 22:45:10;;;;;;;10.15;6.32;;;11.40;99.90;;;;;;10460776;28;20489;-60
2022/11/12 22:50:11;;;;;;;10.27;7.00;;;11.40;99.90;;;;;;10462382;28;20419;-60
2022/11/12 22:55:12;;;;;;;10.18;6.32;;;11.30;99.90;;;;;;10459621;28;20091;-62
2022/11/12 23:00:13;;;;;;;12.18;6.60;;;11.30;99.90;;;;;;10451214;28;20025;-60
2022/11/12 23:05:14;;;;;;;11.25;7.00;;;11.30;99.90;;;;;;10455597;28;20024;-60
2022/11/12 23:10:15;;;;;;;10.35;6.45;;;11.30;99.90;;;;;;10437016;28;20020;-61
2022/11/12 23:15:16;;;;;;;12.10;6.50;;;11.30;99.90;;;;;;10451354;28;20096;-60
2022/11/12 23:20:16;;;;;;;11.23;6.57;;;11.30;99.90;;;;;;10440239;28;20022;-62
2022/11/12 23:25:17;;;;;;;10.02;6.55;;;11.30;99.90;;;;;;10416913;28;20032;-61
2022/11/12 23:30:18;;;;;;;11.95;6.63;;;11.20;99.90;;;;;;10417710;28;20121;-61
2022/11/12 23:35:19;;;;;;;10.32;6.57;;;11.20;99.90;;;;;;10417985;28;20428;-60
2022/11/12 23:40:19;;;;;;;10.48;6.72;;;11.20;99.90;;;;;;10450572;28;20271;-60
2022/11/12 23:45:20;;;;;;;11.45;6.70;;;11.30;99.90;;;;;;10448020;28;20021;-65
2022/11/12 23:50:21;;;;;;;9.93;6.50;;;11.20;99.90;;;;;;10443667;28;20070;-60
2022/11/12 23:55:22;;;;;;;11.85;7.05;;;11.20;99.90;;;;;;10457411;28;20045;-60
